Terminal Aerodrome Forecast
Issued by NWS Sioux Falls, SD

Home | Current Version | Previous Version | Text Only | Print | Product List | Glossary Off
Versions: 1 2 3 4 5 6 7 8 9 10 11 12 13

260
FTUS43 KFSD 101720
TAFFSD
TAF
KFSD 101720Z 1018/1118 12013KT 1SM -SN OVC015
     FM110000 12014KT 1SM -SN OVC009
     FM110700 12011KT 2SM -SN OVC008
     FM111200 06006KT P6SM VCSH OVC005
     FM111400 01006KT P6SM OVC005
     FM111600 33008KT P6SM OVC010=

USA.gov is the U.S. government's official web portal to all federal, state and local government web resources and services.